« Back
NWS Peachtree City, Ga » Text Product » AHN Terminal Aerodrome Forecast


Printer-friendly Version
Current Version              Previous Versions:   1  2  3  4  5  6  7  8  9  

Terminal Aerodrome Forecast

857
FTUS42 KFFC 061420 AAA
TAFAHN
TAF AMD
KAHN 061420Z 0614/0712 05007KT P6SM BKN045
     FM061600 03008KT P6SM SCT045
     FM061900 30004KT P6SM FEW045
     FM062100 27003KT P6SM SKC
     FM070000 00000KT P6SM SKC=

USA.gov is the U.S. government's official web portal to all federal, state and local government web resources and services.